Last 24 Hours

UH Manoa Atmospheric Sciences

15 Minute Data | Pacific/Honolulu
as of 10/30/20 2:36 AM HST
Station Date Time Temp (°F) RH (%) Dew Pt (°F) Wind Spd (mph) Wind Dir (°) Wind Gust (mph) Latest Rain (In) Solar Rad (W/m2) Heat Index (°F) Barometric Pressure (inHg) Daily Rain (In) Daily Min Temp (°F) Daily Max Temp (°F) Daily Max Wind (mph)
UH Manoa Atmospheric Sciences 10/30/20 0230 76.3 70 66.0 4.0 NW | 308 6.9 0.00 0 76.3 29.87 0.00 76.1 77.3 10.6
UH Manoa Atmospheric Sciences 10/30/20 0215 76.5 71 66.2 4.4 NW | 309 6.9 0.00 0 76.5 29.88 0.00 76.2 77.3 10.6
UH Manoa Atmospheric Sciences 10/30/20 0200 76.7 71 66.8 5.2 NW | 305 10.6 0.00 0 76.7 29.88 0.00 76.2 77.3 10.6
UH Manoa Atmospheric Sciences 10/30/20 0145 76.6 72 66.9 4.6 WNW | 303 8.6 0.00 0 76.6 29.88 0.00 76.2 77.3 8.6
UH Manoa Atmospheric Sciences 10/30/20 0130 76.5 72 66.9 3.5 WNW | 298 7.2 0.00 0 76.5 29.89 0.00 76.2 77.3 7.2
UH Manoa Atmospheric Sciences 10/30/20 0115 76.4 72 66.8 3.6 WNW | 300 6.0 0.00 0 76.4 29.89 0.00 76.2 77.3 6.6
UH Manoa Atmospheric Sciences 10/30/20 0100 76.8 71 66.9 3.0 WNW | 292 5.8 0.00 0 76.8 29.89 0.00 76.7 77.3 6.6
UH Manoa Atmospheric Sciences 10/30/20 0045 76.9 71 66.8 3.0 WNW | 292 6.2 0.00 0 76.9 29.90 0.00 76.7 77.3 6.6
UH Manoa Atmospheric Sciences 10/30/20 0030 77.0 71 66.8 2.7 WNW | 300 4.8 0.00 0 77.0 29.90 0.00 76.8 77.3 6.6
UH Manoa Atmospheric Sciences 10/30/20 0015 77.1 70 66.8 2.9 WNW | 294 6.6 0.00 0 77.1 29.90 0.00 77.1 77.3 6.6
UH Manoa Atmospheric Sciences 10/30/20 0000 77.3 70 66.8 2.8 WNW | 291 7.0 0.00 0 77.3 29.90 0.00 72.3 82.9 15.6
UH Manoa Atmospheric Sciences 10/29/20 2345 77.2 70 66.8 3.4 NW | 305 6.6 0.00 0 77.2 29.90 0.00 72.3 82.9 15.6
UH Manoa Atmospheric Sciences 10/29/20 2330 76.7 71 66.8 3.5 NW | 309 7.8 0.00 0 76.7 29.90 0.00 72.3 82.9 15.6
UH Manoa Atmospheric Sciences 10/29/20 2315 75.5 75 66.9 2.7 NNW | 348 6.2 0.00 0 75.5 29.90 0.00 72.3 82.9 15.6
UH Manoa Atmospheric Sciences 10/29/20 2300 75.2 75 66.6 2.6 NNE | 13 4.8 0.00 0 75.2 29.90 0.00 72.3 82.9 15.6
UH Manoa Atmospheric Sciences 10/29/20 2245 75.1 74 66.4 2.5 NNE | 21 4.6 0.00 0 75.1 29.91 0.00 72.3 82.9 15.6
UH Manoa Atmospheric Sciences 10/29/20 2230 75.2 74 66.4 2.2 NNE | 12 4.4 0.00 0 75.2 29.91 0.00 72.3 82.9 15.6
UH Manoa Atmospheric Sciences 10/29/20 2215 75.3 73 66.2 3.1 NNE | 19 5.7 0.00 0 75.3 29.90 0.00 72.3 82.9 15.6
UH Manoa Atmospheric Sciences 10/29/20 2200 76.2 71 66.2 2.2 NNE | 12 4.8 0.00 0 76.2 29.90 0.00 72.3 82.9 15.6
UH Manoa Atmospheric Sciences 10/29/20 2145 76.2 72 66.4 1.2 N | 6 3.3 0.00 0 76.2 29.91 0.00 72.3 82.9 15.6
UH Manoa Atmospheric Sciences 10/29/20 2130 75.8 72 65.9 2.7 NNE | 22 4.8 0.00 0 75.8 29.91 0.00 72.3 82.9 15.6
UH Manoa Atmospheric Sciences 10/29/20 2115 76.6 69 65.9 2.7 NNE | 22 5.1 0.00 0 76.6 29.90 0.00 72.3 82.9 15.6
UH Manoa Atmospheric Sciences 10/29/20 2100 77.0 69 65.9 2.9 NNE | 26 5.5 0.00 0 77.0 29.90 0.00 72.3 82.9 15.6
UH Manoa Atmospheric Sciences 10/29/20 2045 77.2 68 65.9 1.9 NNE | 18 4.3 0.00 0 77.2 29.90 0.00 72.3 82.9 15.6
UH Manoa Atmospheric Sciences 10/29/20 2030 76.9 69 66.0 2.8 NNE | 26 5.6 0.00 0 76.9 29.90 0.00 72.3 82.9 15.6
UH Manoa Atmospheric Sciences 10/29/20 2015 77.5 68 65.9 2.3 NNE | 20 5.6 0.00 0 77.5 29.90 0.00 72.3 82.9 15.6
UH Manoa Atmospheric Sciences 10/29/20 2000 78.9 64 65.7 2.5 N | 10 4.8 0.00 0 78.9 29.89 0.00 72.3 82.9 15.6
UH Manoa Atmospheric Sciences 10/29/20 1945 79.5 62 65.2 4.1 WNW | 289 7.5 0.00 0 79.5 29.89 0.00 72.3 82.9 15.6
UH Manoa Atmospheric Sciences 10/29/20 1930 79.6 61 65.1 3.3 WNW | 284 8.4 0.00 0 79.7 29.89 0.00 72.3 82.9 15.6
UH Manoa Atmospheric Sciences 10/29/20 1915 79.6 62 65.4 2.7 W | 277 6.6 0.00 0 79.6 29.88 0.00 72.3 82.9 15.6
UH Manoa Atmospheric Sciences 10/29/20 1900 79.7 61 65.2 4.1 WNW | 286 8.7 0.00 0 79.7 29.88 0.00 72.3 82.9 15.6
UH Manoa Atmospheric Sciences 10/29/20 1845 79.8 60 64.9 4.1 W | 276 9.1 0.00 0 79.8 29.88 0.00 72.3 82.9 15.6
UH Manoa Atmospheric Sciences 10/29/20 1830 79.8 59 64.4 4.2 W | 273 10.1 0.00 0 79.9 29.87 0.00 72.3 82.9 15.6
UH Manoa Atmospheric Sciences 10/29/20 1815 80.0 58 64.0 4.9 W | 261 11.6 0.00 0 81.2 29.87 0.00 72.3 82.9 15.6
UH Manoa Atmospheric Sciences 10/29/20 1800 80.3 58 64.2 4.7 W | 263 13.3 0.00 3 82.0 29.87 0.00 72.3 82.9 15.6
UH Manoa Atmospheric Sciences 10/29/20 1745 80.5 57 64.1 5.7 W | 270 11.2 0.00 15 82.1 29.87 0.00 72.3 82.9 15.6
UH Manoa Atmospheric Sciences 10/29/20 1730 80.6 57 63.9 6.1 W | 261 13.6 0.00 28 82.1 29.86 0.00 72.3 82.9 15.6
UH Manoa Atmospheric Sciences 10/29/20 1715 80.3 62 66.0 4.5 SW | 228 10.1 0.00 42 82.3 29.86 0.00 72.3 82.9 15.6
UH Manoa Atmospheric Sciences 10/29/20 1700 80.2 63 66.7 4.8 SW | 223 10.7 0.00 68 82.5 29.85 0.00 72.3 82.9 15.6
UH Manoa Atmospheric Sciences 10/29/20 1645 80.2 65 67.3 4.6 SW | 228 11.6 0.00 97 82.7 29.85 0.00 72.3 82.9 15.6
UH Manoa Atmospheric Sciences 10/29/20 1630 80.2 65 67.4 5.1 SW | 229 12.9 0.00 137 82.7 29.85 0.00 72.3 82.9 15.6
UH Manoa Atmospheric Sciences 10/29/20 1615 80.2 65 67.4 4.8 SW | 229 9.0 0.00 163 82.7 29.85 0.00 72.3 82.9 15.6
UH Manoa Atmospheric Sciences 10/29/20 1600 80.7 63 67.1 6.3 SW | 225 13.1 0.00 147 83.1 29.84 0.00 72.3 82.9 15.6
UH Manoa Atmospheric Sciences 10/29/20 1545 81.4 61 66.8 4.9 WSW | 239 12.0 0.00 226 83.8 29.84 0.00 72.3 82.9 15.6
UH Manoa Atmospheric Sciences 10/29/20 1530 81.3 62 67.2 6.7 SSW | 211 15.6 0.00 338 83.8 29.84 0.00 72.3 82.9 15.6
UH Manoa Atmospheric Sciences 10/29/20 1515 81.4 62 67.0 6.2 SW | 225 12.7 0.00 389 83.8 29.84 0.00 72.3 82.9 15.5
UH Manoa Atmospheric Sciences 10/29/20 1500 81.7 60 66.4 6.2 SW | 227 12.4 0.00 413 84.0 29.84 0.00 72.3 82.9 15.5
UH Manoa Atmospheric Sciences 10/29/20 1445 81.5 58 65.6 6.4 SW | 224 14.3 0.00 427 83.5 29.84 0.00 72.3 82.9 15.5
UH Manoa Atmospheric Sciences 10/29/20 1430 81.3 58 65.2 6.4 SW | 223 14.4 0.00 307 83.2 29.84 0.00 72.3 82.9 15.5
UH Manoa Atmospheric Sciences 10/29/20 1415 82.5 55 64.7 5.5 WSW | 238 12.5 0.00 415 84.1 29.84 0.00 72.3 82.9 15.5
UH Manoa Atmospheric Sciences 10/29/20 1400 81.9 56 64.7 6.1 SW | 225 12.7 0.00 421 83.6 29.85 0.00 72.3 82.7 15.5
UH Manoa Atmospheric Sciences 10/29/20 1345 82.0 56 64.5 6.2 SW | 227 13.9 0.00 562 83.6 29.85 0.00 72.3 82.6 15.5
UH Manoa Atmospheric Sciences 10/29/20 1330 81.9 56 64.8 5.0 SW | 226 10.7 0.00 436 83.7 29.86 0.00 72.3 82.3 15.5
UH Manoa Atmospheric Sciences 10/29/20 1315 81.7 57 64.9 6.2 SW | 225 12.6 0.00 473 83.5 29.86 0.00 72.3 82.3 15.5
UH Manoa Atmospheric Sciences 10/29/20 1300 81.3 60 66.2 6.1 SW | 220 14.2 0.00 543 83.5 29.87 0.00 72.3 82.3 15.5
UH Manoa Atmospheric Sciences 10/29/20 1245 81.4 65 68.4 6.7 SW | 222 13.9 0.00 591 84.4 29.87 0.00 72.3 82.3 15.5
UH Manoa Atmospheric Sciences 10/29/20 1230 81.5 64 68.2 6.1 SW | 221 15.5 0.00 594 84.5 29.88 0.00 72.3 82.3 15.5
UH Manoa Atmospheric Sciences 10/29/20 1215 81.5 64 68.0 5.8 SW | 216 12.1 0.00 634 84.4 29.89 0.00 72.3 82.3 13.1
UH Manoa Atmospheric Sciences 10/29/20 1200 81.0 66 68.5 5.5 SSW | 213 13.1 0.00 591 83.9 29.89 0.00 72.3 81.7 13.1
UH Manoa Atmospheric Sciences 10/29/20 1145 80.3 68 68.9 5.8 SW | 223 10.8 0.00 646 82.9 29.90 0.00 72.3 81.7 12.5
UH Manoa Atmospheric Sciences 10/29/20 1130 79.8 69 68.8 5.2 SSW | 193 11.0 0.00 488 80.1 29.91 0.00 72.3 81.7 12.5
UH Manoa Atmospheric Sciences 10/29/20 1115 80.2 68 68.7 6.1 SSW | 206 12.5 0.00 577 82.1 29.91 0.00 72.3 81.7 12.5
UH Manoa Atmospheric Sciences 10/29/20 1100 79.8 69 68.8 5.9 SSW | 200 11.2 0.00 811 80.2 29.92 0.00 72.3 81.7 11.2
UH Manoa Atmospheric Sciences 10/29/20 1045 79.4 69 68.4 5.5 SSW | 194 9.4 0.00 582 79.4 29.92 0.00 72.3 81.7 11.0
UH Manoa Atmospheric Sciences 10/29/20 1030 79.8 68 68.2 5.1 SW | 216 10.4 0.00 420 80.5 29.92 0.00 72.3 81.7 11.0
UH Manoa Atmospheric Sciences 10/29/20 1015 79.5 68 67.9 5.7 SSW | 205 10.8 0.00 523 79.6 29.92 0.00 72.3 81.7 11.0
UH Manoa Atmospheric Sciences 10/29/20 1000 80.4 66 67.8 5.4 SSW | 213 11.0 0.00 607 81.9 29.92 0.00 72.3 81.7 11.0
UH Manoa Atmospheric Sciences 10/29/20 0945 80.0 66 67.7 2.2 WSW | 257 6.4 0.00 565 81.7 29.92 0.00 72.3 81.2 8.9
UH Manoa Atmospheric Sciences 10/29/20 0930 79.7 66 67.5 3.3 WSW | 245 7.8 0.00 543 80.4 29.92 0.00 72.3 80.6 8.9
UH Manoa Atmospheric Sciences 10/29/20 0915 79.3 67 67.3 4.1 W | 278 7.8 0.00 326 79.3 29.92 0.00 72.3 79.9 8.9
UH Manoa Atmospheric Sciences 10/29/20 0900 79.4 67 67.4 2.3 W | 268 7.2 0.00 473 79.4 29.92 0.00 72.3 79.9 8.9
UH Manoa Atmospheric Sciences 10/29/20 0845 79.2 67 67.6 0.4 SE | 146 3.2 0.00 388 79.2 29.91 0.00 72.3 79.9 8.9
UH Manoa Atmospheric Sciences 10/29/20 0830 78.3 74 69.2 0.4 E | 79 1.9 0.00 352 78.3 29.91 0.00 72.3 79.3 8.9
UH Manoa Atmospheric Sciences 10/29/20 0815 76.5 76 68.4 1.4 ENE | 58 3.1 0.00 254 76.5 29.91 0.00 72.3 77.1 8.9
UH Manoa Atmospheric Sciences 10/29/20 0800 75.4 79 68.3 1.9 NE | 48 3.3 0.00 241 75.4 29.91 0.00 72.3 76.4 8.9
UH Manoa Atmospheric Sciences 10/29/20 0745 74.4 80 67.9 1.7 NE | 54 3.1 0.00 167 74.4 29.90 0.00 72.3 75.3 8.9
UH Manoa Atmospheric Sciences 10/29/20 0730 73.7 81 67.7 1.4 NE | 52 3.6 0.00 66 73.7 29.90 0.00 72.3 75.3 8.9
UH Manoa Atmospheric Sciences 10/29/20 0715 73.2 82 67.4 1.6 NE | 36 3.7 0.00 37 73.2 29.90 0.00 72.3 75.3 8.9
UH Manoa Atmospheric Sciences 10/29/20 0700 73.0 82 67.2 2.0 NNE | 23 4.5 0.00 19 73.0 29.90 0.00 72.3 75.3 8.9
UH Manoa Atmospheric Sciences 10/29/20 0645 72.8 83 67.3 2.9 NNE | 24 5.5 0.00 4 72.8 29.89 0.00 72.3 75.3 8.9
UH Manoa Atmospheric Sciences 10/29/20 0630 72.6 84 67.6 3.1 NNE | 33 5.5 0.00 0 72.6 29.88 0.00 72.3 75.3 8.9
UH Manoa Atmospheric Sciences 10/29/20 0615 72.8 84 67.9 2.5 NE | 37 5.5 0.00 0 72.8 29.88 0.00 72.4 75.3 8.9
UH Manoa Atmospheric Sciences 10/29/20 0600 72.7 85 68.1 2.8 NE | 35 4.2 0.00 0 72.7 29.88 0.00 72.4 75.3 8.9
UH Manoa Atmospheric Sciences 10/29/20 0545 72.8 85 68.0 3.0 NE | 43 6.1 0.00 0 72.8 29.87 0.00 72.4 75.3 8.9
UH Manoa Atmospheric Sciences 10/29/20 0530 73.0 85 68.2 2.1 NE | 48 3.9 0.00 0 73.0 29.87 0.00 72.4 75.3 8.9
UH Manoa Atmospheric Sciences 10/29/20 0515 72.8 85 68.2 2.1 NNE | 30 5.3 0.00 0 72.8 29.87 0.00 72.4 75.3 8.9
UH Manoa Atmospheric Sciences 10/29/20 0500 72.8 86 68.5 2.2 NNE | 31 5.3 0.00 0 72.8 29.87 0.00 72.4 75.3 8.9
UH Manoa Atmospheric Sciences 10/29/20 0445 72.8 87 68.7 4.0 NE | 36 6.5 0.00 0 72.8 29.87 0.00 72.4 75.3 8.9
UH Manoa Atmospheric Sciences 10/29/20 0430 72.9 86 68.3 5.5 NE | 34 8.9 0.00 0 72.9 29.87 0.00 72.4 75.3 8.9
UH Manoa Atmospheric Sciences 10/29/20 0415 73.2 84 68.3 4.1 NNE | 26 6.0 0.00 0 73.2 29.87 0.00 72.4 75.3 8.1
UH Manoa Atmospheric Sciences 10/29/20 0400 72.9 85 68.2 2.8 NNE | 18 4.9 0.00 0 72.9 29.87 0.00 72.4 75.3 8.1
UH Manoa Atmospheric Sciences 10/29/20 0345 72.7 86 68.3 4.2 NE | 37 6.2 0.00 0 72.7 29.87 0.00 72.4 75.3 8.1
UH Manoa Atmospheric Sciences 10/29/20 0330 72.7 87 68.5 4.7 NE | 34 8.1 0.00 0 72.7 29.87 0.00 72.4 75.3 8.1
UH Manoa Atmospheric Sciences 10/29/20 0315 72.8 88 68.9 4.9 NE | 35 7.9 0.00 0 72.8 29.87 0.00 72.4 75.3 7.9
UH Manoa Atmospheric Sciences 10/29/20 0300 73.3 88 69.5 3.7 NNE | 32 6.3 0.00 0 73.3 29.88 0.00 73.1 75.3 6.3
UH Manoa Atmospheric Sciences 10/29/20 0245 73.4 88 69.8 3.0 NE | 47 5.0 0.00 0 73.4 29.89 0.00 73.2 75.3 6.3
UH Manoa Atmospheric Sciences 10/29/20 0230 73.8 89 70.3 0.5 N | 354 3.0 0.00 0 73.8 29.89 0.00 73.7 75.3 6.3
Max     82.5 89 70.3 6.7 - 15.6 0.00 811 84.5 29.92 0.00 77.1 82.9 15.6
Avg     77.6 70 67.0 3.9 - 8.1 0.00 166 78.3 29.88 - - - -
Min     72.6 55 63.9 0.4 - 1.9 0.00 0 72.6 29.84 0.00 72.3 75.3 6.3